Time;durP1;ratioP1;P1;durP2;ratioP2;P2;SDS_P1;SDS_P2;PMS_P1;PMS_P2;Temp;Humidity;BMP_temperature;BMP_pressure;BME280_temperature;BME280_humidity;BME280_pressure;Samples;Min_cycle;Max_cycle;Signal;HPM_P1;HPM_P2
2023/11/08 00:01:35;;;;;;;4.07;2.13;;;8.50;98.10;;;;;;6096042;23;20361;-80
2023/11/08 00:04:02;;;;;;;2.95;1.40;;;8.50;98.10;;;;;;6071974;23;20024;-80
2023/11/08 00:06:29;;;;;;;3.10;1.33;;;8.40;98.10;;;;;;6071815;23;20026;-80
2023/11/08 00:08:59;;;;;;;4.78;1.90;;;8.40;98.10;;;;;;6120225;23;20019;-80
2023/11/08 00:11:26;;;;;;;3.97;1.88;;;8.30;98.20;;;;;;6095917;23;20031;-80
2023/11/08 00:13:54;;;;;;;3.67;2.30;;;8.20;98.30;;;;;;6095737;23;20037;-80
2023/11/08 00:16:22;;;;;;;4.45;2.58;;;8.20;98.40;;;;;;6095643;23;20358;-80
2023/11/08 00:18:49;;;;;;;4.32;2.45;;;8.20;98.40;;;;;;6071999;23;20357;-80
2023/11/08 00:21:17;;;;;;;4.07;1.65;;;8.20;98.40;;;;;;6096108;23;20026;-80
2023/11/08 00:23:44;;;;;;;4.53;1.77;;;8.20;98.50;;;;;;6097343;23;20022;-80
2023/11/08 00:26:12;;;;;;;2.92;1.70;;;8.20;98.50;;;;;;6095802;23;20018;-80
2023/11/08 00:28:46;;;;;;;3.33;1.70;;;8.20;98.50;;;;;;6096320;23;20022;-80
2023/11/08 00:31:13;;;;;;;3.20;1.23;;;8.20;98.50;;;;;;6095435;23;20441;-80
2023/11/08 00:33:40;;;;;;;5.50;2.53;;;8.20;98.70;;;;;;6072173;23;20026;-80
2023/11/08 00:36:07;;;;;;;4.30;1.48;;;8.20;98.60;;;;;;6096005;23;20118;-80
2023/11/08 00:38:34;;;;;;;2.50;1.38;;;8.20;98.60;;;;;;6071865;23;20033;-80
2023/11/08 00:41:01;;;;;;;4.65;1.98;;;8.20;98.60;;;;;;6071910;23;20022;-80
2023/11/08 00:43:29;;;;;;;3.08;1.77;;;8.20;98.60;;;;;;6048055;23;20045;-80
2023/11/08 00:46:01;;;;;;;2.90;1.52;;;8.20;98.60;;;;;;6095681;23;20019;-80
2023/11/08 00:48:29;;;;;;;4.07;2.00;;;8.20;98.60;;;;;;6071047;23;20026;-80
2023/11/08 00:50:56;;;;;;;4.03;2.15;;;8.30;98.70;;;;;;6095932;23;20022;-80
2023/11/08 00:53:23;;;;;;;4.90;1.90;;;8.20;98.70;;;;;;6072251;23;20029;-80
2023/11/08 00:55:51;;;;;;;3.70;1.60;;;8.20;98.70;;;;;;6071723;23;20026;-80
2023/11/08 00:58:18;;;;;;;3.00;1.75;;;8.20;98.70;;;;;;6095754;23;20033;-80
2023/11/08 01:00:45;;;;;;;5.32;1.80;;;8.20;98.70;;;;;;6071856;23;20026;-80
2023/11/08 01:03:12;;;;;;;4.75;1.92;;;8.20;98.80;;;;;;6095325;23;20032;-80
2023/11/08 01:05:40;;;;;;;7.45;2.10;;;8.20;98.80;;;;;;6071285;23;20022;-80
2023/11/08 01:08:07;;;;;;;4.88;2.47;;;8.20;98.90;;;;;;6071801;23;20453;-80
2023/11/08 01:10:34;;;;;;;4.97;2.85;;;8.20;99.00;;;;;;6095813;23;20027;-81
2023/11/08 01:13:06;;;;;;;3.90;2.30;;;8.20;99.10;;;;;;6094926;23;20074;-81
2023/11/08 01:15:33;;;;;;;4.97;2.28;;;8.10;99.10;;;;;;6048169;23;20414;-80
2023/11/08 01:18:00;;;;;;;5.13;1.92;;;8.10;99.10;;;;;;6071881;23;20014;-80
2023/11/08 01:20:27;;;;;;;2.97;1.50;;;8.10;99.30;;;;;;6071887;23;20018;-80
2023/11/08 01:22:54;;;;;;;4.00;1.70;;;8.10;99.10;;;;;;6071231;23;20018;-80
2023/11/08 01:25:21;;;;;;;6.72;2.30;;;8.10;99.20;;;;;;6047832;23;20022;-80
2023/11/08 01:27:48;;;;;;;5.00;2.25;;;8.20;99.20;;;;;;6095594;23;20026;-80
2023/11/08 01:30:15;;;;;;;3.92;2.00;;;8.20;99.20;;;;;;6095962;23;20021;-80
2023/11/08 01:32:42;;;;;;;5.63;2.30;;;8.30;99.20;;;;;;6072032;23;20109;-80
2023/11/08 01:35:11;;;;;;;5.97;2.63;;;8.30;99.20;;;;;;6047925;23;20416;-80
2023/11/08 01:37:42;;;;;;;5.10;2.42;;;8.30;99.20;;;;;;6071447;23;20037;-80
2023/11/08 01:40:09;;;;;;;5.85;2.70;;;8.40;99.20;;;;;;6071565;23;20033;-81
2023/11/08 01:42:36;;;;;;;5.03;2.90;;;8.40;99.20;;;;;;6095663;23;20048;-79
2023/11/08 01:45:04;;;;;;;5.15;2.63;;;8.40;99.20;;;;;;6071263;23;20027;-81
2023/11/08 01:47:35;;;;;;;6.72;2.80;;;8.40;99.20;;;;;;6071387;23;20050;-80
2023/11/08 01:50:06;;;;;;;5.13;2.55;;;8.40;99.20;;;;;;6101526;23;20026;-81
2023/11/08 01:52:35;;;;;;;5.47;1.97;;;8.40;99.20;;;;;;6099639;23;20022;-80
2023/11/08 01:55:03;;;;;;;4.93;2.55;;;8.40;99.50;;;;;;6100094;23;20026;-81
2023/11/08 01:57:31;;;;;;;4.70;2.22;;;8.50;99.20;;;;;;6082755;23;20029;-80
2023/11/08 01:59:59;;;;;;;6.30;2.47;;;8.50;99.20;;;;;;6094307;23;20026;-80
2023/11/08 02:02:26;;;;;;;6.63;3.13;;;8.50;99.20;;;;;;6091993;23;20022;-81
2023/11/08 02:04:54;;;;;;;4.70;2.80;;;8.60;99.30;;;;;;6112605;23;20023;-80
2023/11/08 02:07:21;;;;;;;5.00;2.53;;;8.60;99.20;;;;;;6074129;23;20018;-80
2023/11/08 02:09:49;;;;;;;6.32;3.40;;;8.60;99.20;;;;;;6048758;23;20025;-80
2023/11/08 02:12:16;;;;;;;9.05;3.67;;;8.60;99.30;;;;;;6071913;23;20026;-81
2023/11/08 02:15:03;;;;;;;5.50;3.05;;;8.60;99.30;;;;;;6072115;23;20019;-80
2023/11/08 02:17:30;;;;;;;5.85;3.45;;;8.60;99.30;;;;;;6095658;23;20023;-81
2023/11/08 02:19:58;;;;;;;7.03;4.32;;;8.60;99.30;;;;;;6095530;23;20025;-81
2023/11/08 02:22:25;;;;;;;5.68;3.85;;;8.60;99.30;;;;;;6095654;23;20026;-81
2023/11/08 02:24:52;;;;;;;5.53;3.33;;;8.60;99.30;;;;;;6071320;23;20029;-81
2023/11/08 02:27:20;;;;;;;10.93;4.03;;;8.60;99.30;;;;;;6071547;23;20022;-80
2023/11/08 02:29:48;;;;;;;5.43;2.70;;;8.60;99.40;;;;;;6119492;23;20053;-80
2023/11/08 02:32:15;;;;;;;4.25;2.40;;;8.60;99.40;;;;;;6071569;23;20361;-80
2023/11/08 02:34:42;;;;;;;3.92;2.17;;;8.60;99.40;;;;;;6072108;23;20030;-80
2023/11/08 02:37:09;;;;;;;3.85;2.00;;;8.60;99.40;;;;;;6073344;23;20074;-80
2023/11/08 02:39:36;;;;;;;4.90;2.13;;;8.60;99.40;;;;;;6096868;23;20026;-80
2023/11/08 02:42:03;;;;;;;5.82;2.72;;;8.60;99.40;;;;;;6073100;23;20018;-80
2023/11/08 02:44:31;;;;;;;4.82;2.88;;;8.60;99.40;;;;;;6072582;23;20069;-80
2023/11/08 02:46:58;;;;;;;4.85;3.05;;;8.60;99.40;;;;;;6097318;23;20030;-81
2023/11/08 02:49:30;;;;;;;4.50;2.83;;;8.60;99.40;;;;;;6121087;23;20029;-80
2023/11/08 02:51:58;;;;;;;5.60;2.88;;;8.60;99.40;;;;;;6120067;23;20038;-80
2023/11/08 02:54:25;;;;;;;6.45;2.95;;;8.70;99.40;;;;;;6096789;23;20026;-80
2023/11/08 02:56:53;;;;;;;5.32;2.50;;;8.60;99.40;;;;;;6096838;23;20022;-80
2023/11/08 02:59:20;;;;;;;5.10;2.75;;;8.70;99.40;;;;;;6096833;23;20033;-80
2023/11/08 03:01:48;;;;;;;4.85;2.63;;;8.70;99.40;;;;;;6096601;23;20114;-80
2023/11/08 03:04:15;;;;;;;5.00;2.38;;;8.70;99.40;;;;;;6096418;23;20027;-81
2023/11/08 03:06:46;;;;;;;7.32;3.35;;;8.70;99.40;;;;;;6096620;23;20041;-81
2023/11/08 03:09:13;;;;;;;6.30;3.85;;;8.70;99.40;;;;;;6072742;23;20045;-81
2023/11/08 03:11:40;;;;;;;5.50;2.83;;;8.70;99.50;;;;;;6072528;23;20078;-81
2023/11/08 03:14:07;;;;;;;7.28;3.67;;;8.70;99.50;;;;;;6096220;23;20030;-80
2023/11/08 03:16:35;;;;;;;7.13;3.92;;;8.70;99.50;;;;;;6072746;23;20027;-81
2023/11/08 03:19:03;;;;;;;5.25;2.90;;;8.60;99.50;;;;;;6120938;23;20053;-81
2023/11/08 03:21:30;;;;;;;6.55;3.92;;;8.70;99.50;;;;;;6096928;23;20042;-81
2023/11/08 03:24:00;;;;;;;6.50;4.15;;;8.70;99.50;;;;;;6096134;23;20105;-81
2023/11/08 03:26:29;;;;;;;6.32;4.22;;;8.70;99.50;;;;;;6072959;23;20023;-81
2023/11/08 03:28:56;;;;;;;6.10;3.67;;;8.60;99.50;;;;;;6072463;23;20073;-81
2023/11/08 03:31:23;;;;;;;6.47;4.45;;;8.60;99.50;;;;;;6072808;23;20025;-81
2023/11/08 03:33:50;;;;;;;7.15;3.47;;;8.60;99.50;;;;;;6096448;23;20045;-81
2023/11/08 03:36:17;;;;;;;6.70;4.05;;;8.60;99.50;;;;;;6096093;23;20033;-81
2023/11/08 03:38:44;;;;;;;4.53;2.75;;;8.60;99.50;;;;;;6097746;23;20025;-81
2023/11/08 03:41:11;;;;;;;6.93;3.65;;;8.60;99.50;;;;;;6072563;23;20093;-81
2023/11/08 03:43:38;;;;;;;4.80;3.40;;;8.60;99.50;;;;;;6072337;23;20356;-81
2023/11/08 03:46:05;;;;;;;5.43;3.08;;;8.60;99.50;;;;;;6071910;23;20046;-81
2023/11/08 03:48:33;;;;;;;8.80;3.60;;;8.60;99.80;;;;;;6120570;23;20018;-82
2023/11/08 03:51:00;;;;;;;6.38;3.25;;;8.60;99.50;;;;;;6096204;23;20022;-81
2023/11/08 03:53:27;;;;;;;5.82;3.20;;;8.60;99.50;;;;;;6072572;23;20108;-81
2023/11/08 03:55:54;;;;;;;5.72;3.67;;;8.60;99.50;;;;;;6096118;23;20055;-82
2023/11/08 03:58:21;;;;;;;10.65;5.07;;;8.60;99.50;;;;;;6072554;23;20107;-81
2023/11/08 04:00:48;;;;;;;7.05;3.53;;;8.60;99.50;;;;;;6072367;23;20045;-81
2023/11/08 04:03:15;;;;;;;6.80;3.80;;;8.60;99.80;;;;;;6072631;23;20034;-81
2023/11/08 04:05:43;;;;;;;8.40;4.13;;;8.60;99.60;;;;;;6120144;23;20026;-81
2023/11/08 04:08:10;;;;;;;7.22;3.75;;;8.60;99.60;;;;;;6072161;23;20018;-81
2023/11/08 04:10:37;;;;;;;8.00;3.55;;;8.60;99.60;;;;;;6095668;23;20104;-81
2023/11/08 04:13:04;;;;;;;5.38;2.88;;;8.60;99.60;;;;;;6096073;23;20026;-81
2023/11/08 04:15:32;;;;;;;5.20;3.50;;;8.60;99.60;;;;;;6072652;23;20026;-81
2023/11/08 04:17:59;;;;;;;5.55;3.03;;;8.60;99.60;;;;;;6096110;23;20054;-81
2023/11/08 04:20:26;;;;;;;6.93;3.40;;;8.60;99.60;;;;;;6071944;23;20339;-81
2023/11/08 04:22:53;;;;;;;5.85;3.15;;;8.60;99.60;;;;;;6072054;23;20026;-81
2023/11/08 04:25:21;;;;;;;8.30;3.05;;;8.60;99.60;;;;;;6071929;23;20018;-81
2023/11/08 04:27:48;;;;;;;6.25;2.60;;;8.60;99.60;;;;;;6097445;23;20018;-81
2023/11/08 04:30:15;;;;;;;4.30;2.33;;;8.60;99.60;;;;;;6072001;23;20022;-81
2023/11/08 04:32:43;;;;;;;4.57;2.58;;;8.60;99.60;;;;;;6120071;23;20408;-81
2023/11/08 04:35:11;;;;;;;6.55;2.17;;;8.60;99.60;;;;;;6095612;23;20029;-81
2023/11/08 04:37:39;;;;;;;6.65;2.55;;;8.60;99.60;;;;;;6071843;23;20416;-82
2023/11/08 04:40:08;;;;;;;6.35;3.30;;;8.60;99.60;;;;;;6072777;23;20033;-81
2023/11/08 04:42:35;;;;;;;5.57;3.08;;;8.60;99.60;;;;;;6071943;23;20405;-81
2023/11/08 04:45:03;;;;;;;8.57;2.92;;;8.60;99.60;;;;;;6095964;23;20045;-81
2023/11/08 04:47:30;;;;;;;5.85;3.10;;;8.60;99.60;;;;;;6072092;23;20049;-82
2023/11/08 04:49:57;;;;;;;5.72;2.45;;;8.60;99.60;;;;;;6095781;23;20025;-82
2023/11/08 04:52:24;;;;;;;5.65;2.47;;;8.60;99.80;;;;;;6071793;23;20353;-81
2023/11/08 04:54:51;;;;;;;4.30;1.80;;;8.60;99.60;;;;;;6095447;23;20026;-81
2023/11/08 04:57:21;;;;;;;4.47;2.25;;;8.60;99.60;;;;;;6094468;23;20022;-81
2023/11/08 04:59:49;;;;;;;3.20;1.60;;;8.60;99.60;;;;;;6119513;23;20026;-81
2023/11/08 05:02:18;;;;;;;5.68;1.58;;;8.70;99.60;;;;;;6047867;23;20026;-81
2023/11/08 05:04:47;;;;;;;3.92;1.58;;;8.70;99.60;;;;;;6071702;23;20395;-81
2023/11/08 05:07:15;;;;;;;3.55;1.05;;;8.70;99.60;;;;;;6119913;23;20099;-82
2023/11/08 05:09:43;;;;;;;4.95;2.40;;;8.70;99.60;;;;;;6071337;23;20106;-82
2023/11/08 05:12:15;;;;;;;4.65;1.80;;;8.70;99.60;;;;;;6094908;23;20044;-81
2023/11/08 05:14:43;;;;;;;6.35;2.63;;;8.70;99.50;;;;;;6043032;23;20479;-82
2023/11/08 05:17:10;;;;;;;4.45;1.42;;;8.70;99.50;;;;;;6066419;23;20030;-81
2023/11/08 05:19:37;;;;;;;5.25;1.42;;;8.70;99.50;;;;;;6019104;23;20023;-81
2023/11/08 05:22:05;;;;;;;6.07;1.90;;;8.70;99.50;;;;;;6090841;23;20454;-82
2023/11/08 05:24:32;;;;;;;4.80;2.10;;;8.70;99.50;;;;;;6066712;23;20105;-82
2023/11/08 05:26:59;;;;;;;5.40;2.00;;;8.70;99.50;;;;;;6066539;23;20025;-82
2023/11/08 05:29:26;;;;;;;5.57;1.45;;;8.60;99.50;;;;;;6043238;23;20106;-81
2023/11/08 05:31:53;;;;;;;3.22;1.45;;;8.60;99.50;;;;;;6042773;23;20019;-81
2023/11/08 05:34:20;;;;;;;5.90;2.28;;;8.60;99.50;;;;;;6043071;23;20030;-82
2023/11/08 05:36:48;;;;;;;5.85;1.73;;;8.60;99.50;;;;;;6066770;23;20438;-81
2023/11/08 05:39:21;;;;;;;3.45;1.60;;;8.60;99.50;;;;;;6042857;23;20029;-81
2023/11/08 05:41:52;;;;;;;2.53;1.00;;;8.60;99.50;;;;;;6042952;23;20023;-81
2023/11/08 05:44:20;;;;;;;4.60;1.92;;;8.60;99.50;;;;;;6067007;23;20033;-82
2023/11/08 05:46:48;;;;;;;3.75;1.58;;;8.60;99.50;;;;;;6066325;23;20023;-81
2023/11/08 05:49:17;;;;;;;4.20;1.50;;;8.60;99.50;;;;;;6067036;23;20019;-81
2023/11/08 05:51:44;;;;;;;4.55;1.30;;;8.50;99.40;;;;;;6042693;23;20025;-82
2023/11/08 05:54:11;;;;;;;6.03;1.70;;;8.50;99.50;;;;;;6042639;23;20023;-81
2023/11/08 05:56:38;;;;;;;7.55;2.28;;;8.50;99.50;;;;;;6066234;23;20357;-82
2023/11/08 05:59:06;;;;;;;5.65;2.25;;;8.50;99.50;;;;;;6043124;23;20516;-82
2023/11/08 06:01:33;;;;;;;6.55;2.10;;;8.50;99.50;;;;;;6111826;23;20023;-81
2023/11/08 06:04:01;;;;;;;3.95;1.80;;;8.50;99.40;;;;;;6089158;23;20079;-82
2023/11/08 06:06:28;;;;;;;4.93;1.60;;;8.50;99.40;;;;;;6109609;23;20015;-81
2023/11/08 06:08:55;;;;;;;3.28;1.50;;;8.50;99.40;;;;;;6045604;23;20430;-82
2023/11/08 06:11:22;;;;;;;3.83;1.55;;;8.50;99.40;;;;;;6095044;23;20434;-82
2023/11/08 06:13:49;;;;;;;3.60;1.40;;;8.50;99.40;;;;;;6089127;23;20030;-81
2023/11/08 06:16:16;;;;;;;3.38;1.42;;;8.50;99.40;;;;;;6073917;23;20410;-81
2023/11/08 06:18:43;;;;;;;4.93;1.98;;;8.50;99.40;;;;;;6050204;23;20034;-81
2023/11/08 06:21:14;;;;;;;3.47;1.30;;;8.50;99.40;;;;;;6073197;23;20401;-81
2023/11/08 06:23:43;;;;;;;3.63;1.52;;;8.50;99.40;;;;;;6097947;23;20026;-82
2023/11/08 06:26:15;;;;;;;5.40;1.63;;;8.40;99.40;;;;;;6097130;23;20475;-82
2023/11/08 06:28:42;;;;;;;5.00;1.40;;;8.30;99.40;;;;;;6073656;23;20093;-81
2023/11/08 06:31:09;;;;;;;5.13;2.05;;;8.30;99.40;;;;;;6097432;23;20273;-82
2023/11/08 06:33:38;;;;;;;7.55;1.83;;;8.20;99.40;;;;;;6073481;23;20101;-81
2023/11/08 06:36:06;;;;;;;4.75;1.40;;;8.20;99.50;;;;;;6049257;23;20057;-81
2023/11/08 06:38:33;;;;;;;2.38;1.08;;;8.10;99.50;;;;;;6096765;23;20026;-81
2023/11/08 06:41:00;;;;;;;6.07;1.30;;;8.10;99.50;;;;;;6073456;23;20022;-81
2023/11/08 06:43:27;;;;;;;3.70;1.30;;;8.10;99.60;;;;;;6121354;23;20032;-81
2023/11/08 06:45:54;;;;;;;3.88;1.00;;;8.10;99.60;;;;;;6072785;23;20393;-82
2023/11/08 06:48:21;;;;;;;3.25;0.80;;;8.00;99.50;;;;;;6072978;23;20022;-81
2023/11/08 06:50:48;;;;;;;2.97;0.70;;;8.00;99.60;;;;;;6097293;23;20022;-81
2023/11/08 06:53:17;;;;;;;1.90;0.60;;;8.00;99.60;;;;;;6096618;23;20034;-81
2023/11/08 06:55:46;;;;;;;3.97;1.00;;;8.00;99.90;;;;;;6095927;23;20104;-82
2023/11/08 06:58:13;;;;;;;2.90;0.57;;;7.90;99.70;;;;;;6072183;23;20405;-82
2023/11/08 07:00:40;;;;;;;1.77;0.70;;;7.90;99.70;;;;;;6096502;23;20041;-82
2023/11/08 07:03:09;;;;;;;2.10;0.50;;;7.90;99.70;;;;;;6072467;23;20019;-82
2023/11/08 07:05:36;;;;;;;2.17;0.50;;;7.80;99.70;;;;;;6095984;23;20046;-82
2023/11/08 07:08:07;;;;;;;1.33;0.40;;;7.90;99.80;;;;;;6096548;23;20019;-81
2023/11/08 07:10:35;;;;;;;2.05;0.40;;;7.80;99.80;;;;;;6096251;23;20029;-81
2023/11/08 07:13:02;;;;;;;1.75;0.93;;;7.80;99.80;;;;;;6120874;23;20022;-82
2023/11/08 07:15:30;;;;;;;1.63;0.43;;;7.80;99.80;;;;;;6072660;23;20018;-81
2023/11/08 07:17:57;;;;;;;1.35;0.60;;;7.80;99.80;;;;;;6096292;23;20455;-82
2023/11/08 07:20:25;;;;;;;3.17;0.50;;;7.80;99.80;;;;;;6096513;23;20032;-82
2023/11/08 07:22:52;;;;;;;1.63;0.40;;;7.80;99.80;;;;;;6096432;23;20033;-82
2023/11/08 07:25:19;;;;;;;1.00;0.35;;;7.80;99.80;;;;;;6095644;23;20023;-82
2023/11/08 07:27:46;;;;;;;1.20;0.47;;;7.80;99.80;;;;;;6096314;23;20394;-82
2023/11/08 07:30:15;;;;;;;1.88;0.30;;;7.80;99.80;;;;;;6072739;23;20019;-82
2023/11/08 07:32:45;;;;;;;1.27;0.28;;;7.80;99.80;;;;;;6120527;23;20022;-81
2023/11/08 07:35:13;;;;;;;1.70;0.40;;;7.80;99.80;;;;;;6072468;23;20026;-82
2023/11/08 07:37:40;;;;;;;3.38;0.60;;;7.80;99.80;;;;;;6096549;23;20377;-82
2023/11/08 07:40:12;;;;;;;1.67;0.52;;;7.80;99.80;;;;;;6097700;23;20022;-82
2023/11/08 07:42:40;;;;;;;2.85;0.30;;;7.80;99.80;;;;;;6120924;23;20196;-82
2023/11/08 07:45:08;;;;;;;1.38;0.32;;;7.80;99.70;;;;;;6120694;23;20157;-82
2023/11/08 07:47:36;;;;;;;0.98;0.22;;;7.90;99.70;;;;;;6097864;23;20018;-82
2023/11/08 07:50:04;;;;;;;3.13;0.77;;;7.80;99.70;;;;;;6096474;23;20018;-82
2023/11/08 07:52:32;;;;;;;1.80;0.70;;;7.80;99.70;;;;;;6096114;23;20468;-82
2023/11/08 07:54:59;;;;;;;3.67;0.73;;;7.80;99.70;;;;;;6048544;23;20450;-82
2023/11/08 07:57:26;;;;;;;1.45;0.50;;;7.90;99.70;;;;;;6120853;23;20023;-82
2023/11/08 07:59:54;;;;;;;2.58;0.40;;;7.80;99.70;;;;;;6072273;23;20401;-82
2023/11/08 08:02:22;;;;;;;1.42;0.40;;;7.80;99.70;;;;;;6072029;23;20025;-82
2023/11/08 08:04:49;;;;;;;1.00;0.30;;;7.80;99.70;;;;;;6049023;23;20022;-82
2023/11/08 08:07:16;;;;;;;3.50;0.50;;;7.80;99.70;;;;;;6072314;23;20026;-82
2023/11/08 08:09:43;;;;;;;1.25;0.45;;;7.80;99.70;;;;;;6072165;23;20029;-82
2023/11/08 08:12:12;;;;;;;1.35;0.40;;;7.90;99.70;;;;;;6072658;23;20022;-82
2023/11/08 08:14:39;;;;;;;1.92;0.30;;;7.90;99.70;;;;;;6120313;23;20038;-82
2023/11/08 08:17:06;;;;;;;3.55;0.65;;;7.90;99.70;;;;;;6072699;23;20077;-84
2023/11/08 08:19:33;;;;;;;0.93;0.30;;;8.00;99.70;;;;;;6097451;23;20014;-83
2023/11/08 08:22:01;;;;;;;0.70;0.28;;;8.00;99.60;;;;;;6096767;23;20024;-83
2023/11/08 08:24:29;;;;;;;2.75;0.40;;;8.10;99.60;;;;;;6096405;23;20015;-83
2023/11/08 08:26:58;;;;;;;2.92;0.80;;;8.10;99.50;;;;;;6096433;23;20018;-83
2023/11/08 08:29:28;;;;;;;4.25;0.85;;;8.20;99.40;;;;;;6048649;23;20093;-84
2023/11/08 08:32:03;;;;;;;2.83;0.60;;;8.30;99.40;;;;;;6120930;23;20030;-85
2023/11/08 08:34:32;;;;;;;1.40;0.50;;;8.30;99.30;;;;;;6049144;23;20437;-85
2023/11/08 08:36:59;;;;;;;4.50;0.77;;;8.40;99.30;;;;;;6121432;23;20101;-85
2023/11/08 08:39:27;;;;;;;1.13;0.60;;;8.40;99.20;;;;;;6097315;23;20318;-85
2023/11/08 08:41:56;;;;;;;5.05;0.95;;;8.40;99.20;;;;;;6072864;23;20026;-85
2023/11/08 08:44:24;;;;;;;3.35;0.85;;;8.40;99.20;;;;;;6097002;23;20023;-86
2023/11/08 08:46:51;;;;;;;3.42;0.70;;;8.40;99.10;;;;;;6049097;23;20073;-86
2023/11/08 08:49:19;;;;;;;2.95;1.00;;;8.40;99.10;;;;;;6073039;23;20335;-86
2023/11/08 08:51:49;;;;;;;3.40;0.80;;;8.30;99.10;;;;;;6096449;23;20022;-86
2023/11/08 08:54:20;;;;;;;3.65;0.80;;;8.40;99.20;;;;;;6072444;23;20027;-82
2023/11/08 08:56:49;;;;;;;2.50;0.60;;;8.40;99.20;;;;;;6072169;23;20089;-81
2023/11/08 08:59:16;;;;;;;2.67;0.50;;;8.40;99.20;;;;;;6071854;23;20057;-82
2023/11/08 09:01:43;;;;;;;2.92;0.60;;;8.40;99.20;;;;;;6095954;23;20022;-84
2023/11/08 09:04:11;;;;;;;3.25;0.70;;;8.40;99.20;;;;;;6072135;23;20026;-85
2023/11/08 09:06:39;;;;;;;3.15;0.70;;;8.50;99.20;;;;;;6096873;23;20097;-84
2023/11/08 09:09:11;;;;;;;1.58;0.65;;;8.60;99.10;;;;;;6048814;23;20022;-84
2023/11/08 09:11:42;;;;;;;3.08;0.70;;;8.80;99.10;;;;;;6073243;23;20350;-83
2023/11/08 09:14:09;;;;;;;3.08;1.15;;;8.90;98.90;;;;;;6120601;23;20105;-83
2023/11/08 09:16:37;;;;;;;3.33;1.20;;;9.00;98.80;;;;;;6095714;23;20033;-83
2023/11/08 09:19:08;;;;;;;2.38;0.90;;;9.00;98.60;;;;;;6072804;23;20029;-84
2023/11/08 09:21:39;;;;;;;3.60;1.38;;;9.10;98.60;;;;;;6121009;23;20030;-85
2023/11/08 09:24:09;;;;;;;1.92;0.63;;;9.20;98.60;;;;;;6049891;23;20123;-85
2023/11/08 09:26:39;;;;;;;4.20;0.98;;;9.30;98.60;;;;;;6072458;23;20656;-86
2023/11/08 09:29:07;;;;;;;5.40;1.48;;;9.40;98.50;;;;;;6048966;23;20022;-84
2023/11/08 09:31:34;;;;;;;5.68;1.15;;;9.40;98.40;;;;;;6096569;23;20046;-87
2023/11/08 09:34:03;;;;;;;3.30;1.02;;;9.40;98.30;;;;;;6097082;23;20019;-87
2023/11/08 09:36:30;;;;;;;4.70;0.90;;;9.50;98.30;;;;;;6097107;23;20355;-85
2023/11/08 09:38:58;;;;;;;3.80;1.25;;;9.60;98.30;;;;;;6072766;23;20085;-84
2023/11/08 09:41:27;;;;;;;2.20;0.70;;;9.70;98.30;;;;;;6072394;23;20022;-82
2023/11/08 09:43:55;;;;;;;2.65;0.93;;;9.70;98.20;;;;;;6096218;23;20022;-84
2023/11/08 09:46:22;;;;;;;1.77;0.55;;;9.70;98.20;;;;;;6073580;23;20412;-83
2023/11/08 09:48:53;;;;;;;2.30;0.82;;;9.80;98.20;;;;;;6097955;23;20023;-92
2023/11/08 09:51:20;;;;;;;4.03;0.85;;;9.90;98.10;;;;;;6074639;23;20019;-92
2023/11/08 09:53:48;;;;;;;2.78;1.05;;;10.00;98.10;;;;;;6074869;23;20018;-90
2023/11/08 09:56:15;;;;;;;3.80;0.82;;;10.10;98.00;;;;;;6052027;23;20046;-84
2023/11/08 09:58:51;;;;;;;5.15;1.83;;;10.10;97.90;;;;;;6104530;23;20026;-89
2023/11/08 10:01:18;;;;;;;3.35;1.00;;;10.20;97.70;;;;;;6082560;23;20046;-86
2023/11/08 10:03:46;;;;;;;2.55;0.60;;;10.30;97.70;;;;;;6116552;23;20029;-89
2023/11/08 10:06:17;;;;;;;5.03;1.17;;;10.30;97.60;;;;;;6085507;23;20106;-84
2023/11/08 10:08:47;;;;;;;3.67;1.15;;;10.30;97.60;;;;;;6110786;23;20019;-88
2023/11/08 10:11:21;;;;;;;4.65;1.25;;;10.30;97.70;;;;;;6059002;23;20022;-85
2023/11/08 10:13:56;;;;;;;3.38;1.17;;;10.40;97.50;;;;;;6099201;23;20011;-81
2023/11/08 10:16:24;;;;;;;3.65;0.90;;;10.50;97.40;;;;;;6074452;23;20327;-84
2023/11/08 10:19:05;;;;;;;5.57;1.05;;;10.60;97.30;;;;;;6098789;23;20023;-91
2023/11/08 10:21:54;;;;;;;2.28;0.77;;;10.70;97.10;;;;;;6074025;23;20022;-84
2023/11/08 10:24:23;;;;;;;3.15;0.90;;;10.70;97.10;;;;;;6074369;23;20027;-84
2023/11/08 10:26:50;;;;;;;4.35;1.60;;;10.80;97.00;;;;;;6122269;23;20022;-84
2023/11/08 10:29:25;;;;;;;5.45;1.00;;;10.80;97.00;;;;;;6098084;23;20412;-90
2023/11/08 10:31:52;;;;;;;2.67;0.65;;;10.90;96.80;;;;;;6098481;23;20026;-84
2023/11/08 10:34:25;;;;;;;3.25;0.70;;;10.90;96.80;;;;;;6073261;23;20046;-83
2023/11/08 10:36:53;;;;;;;14.48;1.92;;;10.90;96.90;;;;;;6074053;23;20026;-85
2023/11/08 10:39:20;;;;;;;5.40;1.08;;;10.90;96.70;;;;;;6097380;23;20022;-82
2023/11/08 10:41:48;;;;;;;4.57;1.10;;;11.00;96.60;;;;;;6073620;23;20113;-83
2023/11/08 10:44:22;;;;;;;2.33;0.63;;;11.00;96.60;;;;;;6072658;23;20027;-84
2023/11/08 10:47:12;;;;;;;1.88;0.73;;;11.00;96.50;;;;;;6077361;23;20073;-84
2023/11/08 10:49:40;;;;;;;3.40;0.88;;;11.00;96.50;;;;;;6072981;23;20014;-85
2023/11/08 10:52:36;;;;;;;2.22;0.73;;;11.00;96.50;;;;;;6098817;23;20022;-93
2023/11/08 10:55:12;;;;;;;2.63;0.60;;;11.00;96.50;;;;;;6069688;23;20069;-92
2023/11/08 10:58:01;;;;;;;3.58;0.75;;;11.00;96.40;;;;;;6122694;23;20031;-91
2023/11/08 11:00:34;;;;;;;2.60;0.50;;;11.00;96.10;;;;;;6098588;23;20027;-91
2023/11/08 11:03:12;;;;;;;3.63;1.17;;;10.90;96.20;;;;;;6097163;23;20060;-84
2023/11/08 11:05:43;;;;;;;4.47;0.55;;;11.00;96.10;;;;;;6073015;23;20026;-84
2023/11/08 11:08:18;;;;;;;2.33;0.60;;;11.00;96.00;;;;;;6050001;23;20046;-83
2023/11/08 11:10:46;;;;;;;4.20;0.93;;;11.00;96.00;;;;;;6097218;23;20034;-85
2023/11/08 11:13:21;;;;;;;1.40;0.55;;;11.00;96.10;;;;;;6088025;23;20047;-84
2023/11/08 11:16:05;;;;;;;2.65;0.60;;;11.00;96.10;;;;;;6067245;23;20049;-84
2023/11/08 11:18:45;;;;;;;4.45;0.77;;;10.90;95.90;;;;;;6045287;23;20026;-84
2023/11/08 11:21:26;;;;;;;1.77;0.70;;;10.90;95.90;;;;;;6067783;23;20019;-83
2023/11/08 11:23:54;;;;;;;1.90;0.70;;;10.80;95.90;;;;;;6044306;23;20023;-84
2023/11/08 11:26:54;;;;;;;3.72;0.88;;;10.80;96.00;;;;;;6067881;23;20434;-83
2023/11/08 11:29:21;;;;;;;2.97;0.98;;;10.70;96.00;;;;;;6019739;23;20025;-84
2023/11/08 11:31:48;;;;;;;1.92;0.60;;;10.60;95.90;;;;;;6091731;23;20026;-84
2023/11/08 11:34:22;;;;;;;2.92;0.80;;;10.60;96.00;;;;;;6068020;23;20015;-83
2023/11/08 11:37:02;;;;;;;2.00;0.70;;;10.60;96.00;;;;;;6067981;23;20027;-83
2023/11/08 11:39:33;;;;;;;3.08;0.70;;;10.70;95.90;;;;;;6091754;23;20022;-83
2023/11/08 11:42:12;;;;;;;3.53;0.93;;;10.70;95.70;;;;;;6067864;23;20358;-84
2023/11/08 11:44:51;;;;;;;3.33;0.65;;;10.80;95.70;;;;;;6067874;23;20034;-83
2023/11/08 11:47:29;;;;;;;3.17;0.70;;;10.90;95.70;;;;;;6067720;23;20102;-84
2023/11/08 11:50:02;;;;;;;1.85;0.77;;;10.90;95.60;;;;;;6068025;23;20046;-84
2023/11/08 11:52:32;;;;;;;3.97;0.95;;;11.00;95.60;;;;;;6091944;23;20073;-84
2023/11/08 11:55:00;;;;;;;4.47;0.70;;;11.10;95.40;;;;;;6043998;23;20023;-84
2023/11/08 11:57:29;;;;;;;2.22;0.57;;;11.10;95.40;;;;;;6091455;23;20106;-84
2023/11/08 11:59:58;;;;;;;4.65;0.60;;;11.20;95.20;;;;;;6043702;23;20026;-83
2023/11/08 12:02:30;;;;;;;2.15;0.50;;;11.30;95.10;;;;;;6067192;23;20031;-84
2023/11/08 12:04:59;;;;;;;3.25;0.90;;;11.40;95.10;;;;;;6042914;23;20034;-84
2023/11/08 12:07:27;;;;;;;7.28;1.30;;;11.50;95.00;;;;;;6091530;23;20095;-82
2023/11/08 12:09:54;;;;;;;4.85;0.80;;;11.50;94.70;;;;;;6043586;23;20022;-83
2023/11/08 12:12:29;;;;;;;3.15;0.80;;;11.60;94.20;;;;;;6043548;23;20464;-84
2023/11/08 12:15:18;;;;;;;2.58;0.70;;;11.60;94.40;;;;;;6121496;23;20089;-83
2023/11/08 12:17:52;;;;;;;3.95;0.70;;;11.70;94.00;;;;;;6072691;23;20453;-83
2023/11/08 12:20:21;;;;;;;3.50;0.75;;;11.70;93.90;;;;;;6121495;23;20022;-84
2023/11/08 12:22:50;;;;;;;6.15;1.20;;;11.70;93.90;;;;;;6049272;23;20131;-84
2023/11/08 12:25:21;;;;;;;8.85;1.23;;;11.80;93.80;;;;;;6072816;23;20065;-85
2023/11/08 12:27:50;;;;;;;2.75;0.63;;;11.90;93.60;;;;;;6072375;23;20028;-84
2023/11/08 12:30:26;;;;;;;1.85;0.70;;;11.90;93.70;;;;;;6121261;23;20029;-83
2023/11/08 12:32:56;;;;;;;1.15;0.38;;;12.00;93.40;;;;;;6096721;23;20029;-83
2023/11/08 12:35:24;;;;;;;2.63;0.60;;;12.00;93.60;;;;;;6072139;23;20022;-84
2023/11/08 12:37:58;;;;;;;2.42;0.98;;;12.00;93.50;;;;;;6096347;23;20441;-88
2023/11/08 12:40:27;;;;;;;3.70;0.55;;;12.00;93.40;;;;;;6073032;23;20026;-84
2023/11/08 12:42:54;;;;;;;2.78;0.50;;;11.90;93.50;;;;;;6096171;23;20054;-85
2023/11/08 12:45:42;;;;;;;3.15;0.63;;;11.90;93.50;;;;;;6076392;23;20022;-85
2023/11/08 12:48:31;;;;;;;3.03;0.57;;;11.90;93.60;;;;;;6072079;23;20030;-84
2023/11/08 12:51:05;;;;;;;2.33;0.50;;;11.80;93.40;;;;;;6096501;23;20029;-85
2023/11/08 12:53:32;;;;;;;3.05;0.43;;;11.80;93.50;;;;;;6048191;23;20026;-84
2023/11/08 12:56:04;;;;;;;2.42;0.52;;;11.80;93.50;;;;;;6096061;23;20049;-83
2023/11/08 12:58:33;;;;;;;2.10;0.85;;;11.80;93.60;;;;;;6072148;23;20018;-83
2023/11/08 13:01:06;;;;;;;1.67;0.40;;;11.70;93.60;;;;;;6072038;23;20026;-83
2023/11/08 13:03:40;;;;;;;1.90;0.40;;;11.70;93.60;;;;;;6072098;23;20018;-83
2023/11/08 13:06:08;;;;;;;4.00;0.80;;;11.70;93.70;;;;;;6118924;23;20039;-83